This is the latest recevied weather packets stored in our database for station/object KG4YZY-1. If no packets are shown the sender has not sent any weather packets the latest 1 day(s).
| Time | Temp. | Humidity | Pressure | Rain* | Wind** | Luminosity | Snow |
|---|---|---|---|---|---|---|---|
| 1778107204 | 27.78° C | 76% | 1016.9 hPa | 0 mm | - | - | - |
| 1778106904 | 27.78° C | 75% | 1016.8 hPa | 0 mm | - | - | - |
| 1778105104 | 27.78° C | 77% | 1017.1 hPa | 0 mm | - | - | - |
| 1778103604 | 28.33° C | 75% | 1017.1 hPa | 0 mm | - | - | - |
| 1778103004 | 28.33° C | 74% | 1017.1 hPa | 0 mm | - | - | - |
| 1778100604 | 30° C | 70% | 1016.9 hPa | 0 mm | - | - | - |
| 1778099704 | 30° C | 69% | 1016.7 hPa | 0 mm | - | - | - |
| 1778099104 | 30° C | 69% | 1016.9 hPa | 0 mm | - | - | - |
| 1778096404 | 32.22° C | 60% | 1017.1 hPa | 0 mm | - | - | - |
| 1778095204 | 32.78° C | 59% | 1017.1 hPa | 0 mm | - | - | - |
| 1778093704 | 33.33° C | 58% | 1017.3 hPa | 0 mm | - | - | - |
| 1778080204 | 28.33° C | 68% | 1018.6 hPa | 0 mm | - | - | - |
| 1778077204 | 26.11° C | 76% | 1018.7 hPa | 0 mm | - | - | - |
| 1778076604 | 25.56° C | 78% | 1018.6 hPa | 0 mm | - | - | - |
| 1778076304 | 25.56° C | 79% | 1018.7 hPa | 0 mm | - | - | - |
| 1778073004 | 22.78° C | 86% | 1018.4 hPa | 0 mm | - | - | - |
| 1778071804 | 21.67° C | 90% | 1018.3 hPa | 0 mm | - | - | - |
| 1778070004 | 19.44° C | 91% | 1018.2 hPa | 0 mm | - | - | - |
| 1778068204 | 18.33° C | 90% | 1017.8 hPa | 0 mm | - | - | - |
| 1778067004 | 18.33° C | 90% | 1017.6 hPa | 0 mm | - | - | - |
| 1778066704 | 18.33° C | 90% | 1017.5 hPa | 0 mm | - | - | - |
| 1778066104 | 17.78° C | 89% | 1017.5 hPa | 0 mm | - | - | - |
| 1778064304 | 17.78° C | 89% | 1017.2 hPa | 0 mm | - | - | - |
| 1778064004 | 17.78° C | 89% | 1017.2 hPa | 0 mm | - | - | - |
| 1778062804 | 17.78° C | 89% | 1017 hPa | 0 mm | - | - | - |
* Rain latest hour (hover to see other rain measurements)
** Current wind speed in m/s (hover to see current wind gust speed)